createdAt,value
2023-03-01T00:09:48.871Z,18.50
2023-03-01T00:10:48.759Z,18.45
2023-03-01T00:11:48.568Z,18.48
2023-03-01T00:12:48.394Z,18.45
2023-03-01T00:13:48.257Z,18.47
2023-03-01T00:14:48.095Z,18.48
2023-03-01T00:15:47.938Z,18.48
2023-03-01T00:16:47.857Z,18.47
2023-03-01T00:17:47.643Z,18.48
2023-03-01T00:18:47.530Z,18.48
2023-03-01T00:19:47.329Z,18.45
2023-03-01T00:20:47.172Z,18.45
2023-03-01T00:21:47.032Z,18.45
2023-03-01T00:22:46.868Z,18.47
2023-03-01T00:23:46.713Z,18.45
2023-03-01T00:24:46.682Z,18.45
2023-03-01T00:25:46.402Z,18.45
2023-03-01T00:26:46.247Z,18.47
2023-03-01T00:27:46.090Z,18.45
2023-03-01T00:28:45.930Z,18.45
2023-03-01T00:29:45.783Z,18.45
2023-03-01T00:30:45.661Z,18.50
2023-03-01T00:31:45.682Z,18.45
2023-03-01T00:32:45.437Z,18.45
2023-03-01T00:33:45.179Z,18.40
2023-03-01T00:34:45.022Z,18.44
2023-03-01T00:35:44.943Z,18.43
2023-03-01T00:36:44.723Z,18.40
2023-03-01T00:37:44.584Z,18.45
2023-03-01T00:38:44.433Z,18.43
2023-03-01T00:39:44.273Z,18.41
2023-03-01T00:40:44.132Z,18.43
2023-03-01T00:41:43.971Z,18.44
2023-03-01T00:42:43.819Z,18.41
2023-03-01T00:43:43.674Z,18.41
2023-03-01T00:44:43.517Z,18.38
2023-03-01T00:45:43.360Z,18.41
2023-03-01T01:11:39.356Z,18.35
2023-03-01T01:12:39.207Z,18.37
2023-03-01T01:13:39.076Z,18.38
2023-03-01T01:14:38.904Z,18.37
2023-03-01T01:15:38.837Z,18.37
2023-03-01T01:16:38.601Z,18.37
2023-03-01T01:17:38.449Z,18.34
2023-03-01T01:18:38.292Z,18.35
2023-03-01T01:19:38.148Z,18.34
2023-03-01T01:51:33.469Z,18.31
2023-03-01T01:52:33.326Z,18.28
2023-03-01T02:04:31.551Z,18.33
2023-03-01T02:05:31.459Z,18.33
2023-03-01T02:06:31.787Z,18.28
2023-03-01T02:07:31.107Z,18.31
2023-03-01T02:08:30.958Z,18.30
2023-03-01T02:09:30.809Z,18.27
2023-03-01T02:10:30.668Z,18.26
2023-03-01T02:11:30.516Z,18.26
2023-03-01T02:12:30.381Z,18.28
2023-03-01T02:13:30.249Z,18.28
2023-03-01T02:14:30.097Z,18.27
2023-03-01T02:15:29.959Z,18.30
2023-03-01T02:16:30.062Z,18.28
2023-03-01T02:17:29.648Z,18.27
2023-03-01T02:18:29.498Z,18.33
2023-03-01T02:19:29.353Z,18.31
2023-03-01T02:20:29.190Z,18.30
2023-03-01T02:21:29.148Z,18.31
2023-03-01T02:22:28.944Z,18.27
2023-03-01T02:23:28.755Z,18.30
2023-03-01T02:24:28.604Z,18.30
2023-03-01T02:25:28.465Z,18.31
2023-03-01T02:26:28.765Z,18.27
2023-03-01T02:27:28.174Z,18.28
2023-03-01T02:28:28.038Z,18.24
2023-03-01T02:29:27.970Z,18.24
2023-03-01T02:30:27.745Z,18.20
2023-03-01T02:31:27.639Z,18.18
2023-03-01T02:32:27.563Z,18.18
2023-03-01T02:33:27.337Z,18.11
2023-03-01T02:34:27.222Z,18.11
2023-03-01T02:35:27.166Z,18.17
2023-03-01T02:36:26.948Z,18.11
2023-03-01T02:37:26.852Z,18.09
2023-03-01T02:38:26.717Z,18.11
2023-03-01T02:39:26.575Z,18.09
2023-03-01T02:40:26.450Z,18.09
2023-03-01T02:41:26.332Z,18.10
2023-03-01T02:42:27.271Z,18.10
2023-03-01T02:43:26.101Z,18.07
2023-03-01T02:44:25.982Z,18.09
2023-03-01T02:45:25.919Z,18.10
2023-03-01T02:46:25.781Z,18.06
2023-03-01T02:47:25.620Z,18.07
2023-03-01T02:48:25.489Z,18.07
2023-03-01T02:49:25.368Z,18.06
2023-03-01T02:50:25.232Z,18.09
2023-03-01T02:51:25.121Z,18.06
2023-03-01T02:52:25.014Z,18.10
2023-03-01T02:53:24.882Z,18.07
2023-03-01T02:54:24.760Z,18.06
2023-03-01T02:55:24.642Z,18.10
2023-03-01T02:56:24.565Z,18.10
2023-03-01T02:57:24.428Z,18.07
2023-03-01T02:58:24.280Z,18.09
2023-03-01T02:59:24.235Z,18.11
2023-03-01T03:00:24.038Z,18.07
2023-03-01T03:01:23.920Z,18.09
2023-03-01T03:02:23.827Z,18.07
2023-03-01T03:03:23.781Z,18.10
2023-03-01T03:04:23.569Z,18.10
2023-03-01T03:05:23.462Z,18.11
2023-03-01T03:06:23.351Z,18.09
2023-03-01T04:35:14.101Z,17.96
2023-03-01T04:36:14.097Z,17.96
2023-03-01T04:37:13.911Z,17.94
2023-03-01T04:38:13.816Z,17.92
2023-03-01T04:39:13.702Z,17.92
2023-03-01T04:40:13.687Z,17.94
2023-03-01T04:41:13.531Z,17.93
2023-03-01T04:42:13.453Z,17.93
2023-03-01T04:43:13.748Z,17.94
2023-03-01T06:01:06.199Z,17.86
2023-03-01T06:02:06.137Z,17.85
2023-03-01T06:03:06.068Z,17.85
2023-03-01T06:04:05.955Z,17.83
2023-03-01T06:05:05.967Z,17.85
2023-03-01T06:06:05.780Z,17.89
2023-03-01T06:07:05.805Z,17.92
2023-03-01T06:08:05.612Z,17.86
2023-03-01T06:09:05.520Z,17.89
2023-03-01T06:10:05.435Z,17.90
2023-03-01T06:11:05.365Z,17.88
2023-03-01T06:12:05.272Z,17.85
2023-03-01T06:13:05.186Z,17.88
2023-03-01T06:14:05.101Z,17.86
2023-03-01T06:15:05.039Z,17.85
2023-03-01T06:16:04.984Z,17.86
2023-03-01T06:17:04.869Z,17.85
2023-03-01T06:18:04.772Z,17.85
2023-03-01T06:19:05.273Z,17.88
2023-03-01T06:20:04.569Z,17.97
2023-03-01T06:21:04.472Z,18.00
2023-03-01T06:22:04.361Z,17.99
2023-03-01T06:23:04.262Z,18.00
2023-03-01T06:24:04.143Z,18.01
2023-03-01T06:25:05.004Z,17.99
2023-03-01T06:26:03.876Z,18.00
2023-03-01T06:27:03.721Z,18.03
2023-03-01T06:28:03.598Z,18.11
2023-03-01T06:29:03.422Z,18.13
2023-03-01T06:53:00.785Z,17.83
2023-03-01T06:54:01.732Z,17.85
2023-03-01T06:55:00.583Z,17.83
2023-03-01T06:56:00.496Z,17.82
2023-03-01T06:57:00.411Z,17.86
2023-03-01T06:58:00.306Z,17.83
2023-03-01T06:59:00.211Z,17.83
2023-03-01T07:00:00.132Z,17.85
2023-03-01T07:01:00.034Z,17.83
2023-03-01T07:01:59.979Z,17.83
2023-03-01T07:03:00.051Z,17.83
2023-03-01T07:03:59.795Z,17.86
2023-03-01T07:04:59.656Z,17.85
2023-03-01T07:05:59.559Z,17.86
2023-03-01T07:06:59.571Z,17.89
2023-03-01T07:07:59.368Z,17.88
2023-03-01T07:08:59.287Z,17.88
2023-03-01T07:09:59.199Z,17.92
2023-03-01T07:10:59.014Z,17.89
2023-03-01T07:11:58.931Z,17.93
2023-03-01T07:12:58.842Z,17.93
2023-03-01T07:13:58.625Z,17.94
2023-03-01T07:14:58.525Z,17.94
2023-03-01T07:15:58.423Z,17.97
2023-03-01T07:16:58.252Z,17.93
2023-03-01T07:17:58.123Z,17.94
2023-03-01T07:18:59.743Z,17.94
2023-03-01T07:19:57.925Z,17.96
2023-03-01T07:20:57.733Z,18.03
2023-03-01T07:21:57.586Z,18.04
2023-03-01T07:22:57.524Z,18.07
2023-03-01T07:23:57.336Z,18.20
2023-03-01T07:24:57.278Z,18.20
2023-03-01T08:03:51.597Z,18.99
2023-03-01T08:39:46.386Z,19.31
2023-03-01T08:40:46.258Z,19.35
2023-03-01T08:41:48.100Z,19.39
2023-03-01T08:43:45.902Z,19.54
2023-03-01T08:44:47.073Z,19.54
2023-03-01T08:45:45.635Z,19.57
2023-03-01T08:46:45.511Z,19.55
2023-03-01T08:47:46.333Z,19.59
2023-03-01T08:48:45.331Z,19.62
2023-03-01T08:49:45.129Z,19.66
2023-03-01T09:04:42.931Z,19.93
2023-03-01T09:05:42.742Z,19.93
2023-03-01T09:06:42.630Z,19.93
2023-03-01T09:07:42.386Z,19.94
2023-03-01T09:08:42.344Z,19.99
2023-03-01T09:09:42.045Z,20.03
2023-03-01T09:10:41.876Z,20.03
2023-03-01T09:11:41.684Z,20.03
2023-03-01T09:12:41.481Z,20.03
2023-03-01T10:05:34.164Z,20.07
2023-03-01T10:06:35.561Z,20.09
2023-03-01T10:07:33.852Z,20.10
2023-03-01T10:08:33.733Z,20.17
2023-03-01T10:09:33.626Z,20.20
2023-03-01T10:10:33.459Z,20.27
2023-03-01T10:11:33.219Z,20.27
2023-03-01T10:12:33.057Z,20.27
2023-03-01T10:13:32.885Z,20.27
2023-03-01T10:14:32.728Z,20.28
2023-03-01T10:15:32.643Z,20.34
2023-03-01T10:16:32.410Z,20.38
2023-03-01T10:17:32.248Z,20.44
2023-03-01T10:18:32.076Z,20.41
2023-03-01T10:19:31.938Z,20.42
2023-03-01T10:20:31.873Z,20.41
2023-03-01T10:21:32.053Z,20.32
2023-03-01T10:22:31.455Z,20.31
2023-03-01T10:23:31.309Z,20.30
2023-03-01T10:24:31.262Z,20.23
2023-03-01T10:25:30.966Z,20.17
2023-03-01T10:26:31.110Z,20.14
2023-03-01T10:27:30.664Z,20.11
2023-03-01T10:28:30.808Z,20.06
2023-03-01T10:29:30.461Z,20.03
2023-03-01T10:30:30.258Z,20.03
2023-03-01T10:31:30.649Z,19.97
2023-03-01T10:32:29.957Z,20.06
2023-03-01T10:33:29.770Z,20.03
2023-03-01T10:34:29.648Z,20.03
2023-03-01T10:35:29.632Z,20.00
2023-03-01T10:36:29.583Z,19.96
2023-03-01T10:37:29.294Z,19.93
2023-03-01T10:38:29.322Z,19.87
2023-03-01T10:39:28.944Z,19.86
2023-03-01T10:40:28.804Z,19.79
2023-03-01T10:41:29.100Z,19.80
2023-03-01T10:42:28.536Z,19.77
2023-03-01T10:43:28.433Z,19.73
2023-03-01T10:44:28.273Z,19.72
2023-03-01T10:45:28.158Z,19.70
2023-03-01T10:46:28.098Z,19.68
2023-03-01T10:47:27.892Z,19.66
2023-03-01T10:48:27.757Z,19.62
2023-03-01T11:08:28.107Z,19.62
2023-03-01T11:44:18.906Z,19.51
2023-03-01T11:45:18.718Z,19.51
2023-03-01T11:48:18.208Z,19.54
2023-03-01T11:49:18.025Z,19.49
2023-03-01T11:50:17.877Z,19.54
2023-03-01T12:19:14.177Z,19.49
2023-03-01T12:20:14.065Z,19.52
2023-03-01T12:21:13.967Z,19.49
2023-03-01T12:22:13.852Z,19.47
2023-03-01T12:23:20.358Z,19.47
2023-03-01T12:25:13.573Z,19.42
2023-03-01T12:26:14.260Z,19.41
2023-03-01T12:27:13.081Z,19.42
2023-03-01T12:28:12.965Z,19.38
2023-03-01T12:29:12.732Z,19.41
2023-03-01T12:30:12.656Z,19.39
2023-03-01T12:31:12.391Z,19.38
2023-03-01T12:32:12.353Z,19.37
2023-03-01T12:33:12.124Z,19.37
2023-03-01T12:34:11.894Z,19.39
2023-03-01T12:35:11.777Z,19.37
2023-03-01T12:36:11.705Z,19.38
2023-03-01T12:37:11.563Z,19.35
2023-03-01T12:38:11.494Z,19.37
2023-03-01T12:39:11.338Z,19.35
2023-03-01T12:40:11.451Z,19.34
2023-03-01T12:41:11.115Z,19.37
2023-03-01T12:42:11.085Z,19.34
2023-03-01T12:43:10.901Z,19.34
2023-03-01T12:44:10.776Z,19.37
2023-03-01T12:45:10.698Z,19.34
2023-03-01T12:46:10.617Z,19.37
2023-03-01T12:47:10.450Z,19.37
2023-03-01T12:48:10.448Z,19.37
2023-03-01T12:49:10.244Z,19.37
2023-03-01T12:50:10.108Z,19.34
2023-03-01T12:51:09.998Z,19.35
2023-03-01T12:52:09.862Z,19.37
2023-03-01T12:53:09.778Z,19.37
2023-03-01T12:54:09.647Z,19.34
2023-03-01T12:55:09.572Z,19.34
2023-03-01T12:56:09.422Z,19.35
2023-03-01T12:57:09.296Z,19.37
2023-03-01T12:58:09.177Z,19.37
2023-03-01T12:59:09.086Z,19.35
2023-03-01T13:00:08.981Z,19.34
2023-03-01T13:01:08.902Z,19.37
2023-03-01T13:02:08.805Z,19.38
2023-03-01T13:03:08.629Z,19.37
2023-03-01T13:04:08.557Z,19.39
2023-03-01T13:05:08.425Z,19.37
2023-03-01T13:06:08.286Z,19.38
2023-03-01T13:07:08.186Z,19.38
2023-03-01T13:08:08.081Z,19.38
2023-03-01T13:09:07.979Z,19.39
2023-03-01T13:10:07.887Z,19.38
2023-03-01T13:11:07.750Z,19.41
2023-03-01T14:30:58.517Z,19.44
2023-03-01T14:31:58.473Z,19.44
2023-03-01T14:32:58.292Z,19.44
2023-03-01T14:33:58.112Z,19.45
2023-03-01T14:34:58.000Z,19.44
2023-03-01T14:35:57.910Z,19.42
2023-03-01T14:36:57.793Z,19.44
2023-03-01T15:50:48.880Z,19.14
2023-03-01T15:54:48.422Z,19.13
2023-03-01T15:56:48.196Z,19.11
2023-03-01T15:57:48.139Z,19.11
2023-03-01T15:58:47.968Z,19.14
2023-03-01T15:59:47.860Z,19.11
2023-03-01T16:00:59.893Z,19.15
2023-03-01T16:20:44.899Z,19.09
2023-03-01T16:21:44.761Z,19.07
2023-03-01T16:22:44.945Z,19.09
2023-03-01T16:23:44.600Z,19.07
2023-03-01T16:24:44.385Z,19.07
2023-03-01T16:25:44.387Z,19.04
2023-03-01T16:26:44.143Z,19.03
2023-03-01T16:27:44.045Z,19.06
2023-03-01T16:28:43.921Z,19.04
2023-03-01T16:29:43.797Z,19.03
2023-03-01T16:30:43.703Z,19.02
2023-03-01T16:31:43.762Z,19.02
2023-03-01T16:32:43.508Z,19.00
2023-03-01T16:33:43.303Z,19.02
2023-03-01T16:34:43.191Z,19.02
2023-03-01T16:35:43.965Z,19.03
2023-03-01T16:36:42.939Z,19.00
2023-03-01T16:37:42.849Z,18.97
2023-03-01T16:38:42.729Z,19.02
2023-03-01T16:39:42.610Z,19.00
2023-03-01T16:40:42.559Z,18.99
2023-03-01T17:02:39.616Z,19.09
2023-03-01T17:03:39.453Z,19.09
2023-03-01T17:04:39.304Z,19.07
2023-03-01T17:05:39.171Z,19.09
2023-03-01T17:06:39.013Z,19.09
2023-03-01T17:07:38.947Z,19.10
2023-03-01T17:08:39.455Z,19.10
2023-03-01T17:09:38.632Z,19.13
2023-03-01T17:10:38.514Z,19.11
2023-03-01T17:12:38.313Z,19.13
2023-03-01T17:13:38.163Z,19.10
2023-03-01T17:14:38.057Z,19.11
2023-03-01T17:15:37.933Z,19.10
2023-03-01T17:16:37.826Z,19.13
2023-03-01T17:57:33.139Z,19.21
2023-03-01T17:58:33.021Z,19.20
2023-03-01T17:59:32.925Z,19.24
2023-03-01T18:00:32.787Z,19.21
2023-03-01T18:01:32.995Z,19.24
2023-03-01T18:02:32.626Z,19.24
2023-03-01T18:03:32.461Z,19.23
2023-03-01T18:04:32.413Z,19.23
2023-03-01T18:05:32.224Z,19.20
2023-03-01T18:06:32.403Z,19.23
2023-03-01T18:07:32.000Z,19.21
2023-03-01T18:08:31.875Z,19.25
2023-03-01T18:09:31.753Z,19.25
2023-03-01T18:10:31.653Z,19.23
2023-03-01T18:11:31.815Z,19.21
2023-03-01T18:12:32.547Z,19.24
2023-03-01T18:13:31.285Z,19.24
2023-03-01T18:14:31.175Z,19.25
2023-03-01T18:15:31.048Z,19.21
2023-03-01T18:16:31.448Z,19.25
2023-03-01T18:17:30.816Z,19.25
2023-03-01T18:18:30.697Z,19.23
2023-03-01T18:19:30.583Z,19.21
2023-03-01T18:20:30.453Z,19.23
2023-03-01T18:21:30.770Z,19.23
2023-03-01T18:22:30.481Z,19.25
2023-03-01T18:23:30.124Z,19.24
2023-03-01T18:24:30.013Z,19.25
2023-03-01T18:25:29.913Z,19.21
2023-03-01T18:26:30.423Z,19.24
2023-03-01T18:27:29.730Z,19.23
2023-03-01T18:28:29.661Z,19.23
2023-03-01T18:29:29.453Z,19.25
2023-03-01T18:30:29.349Z,19.21
2023-03-01T18:31:29.248Z,19.24
2023-03-01T18:32:30.105Z,19.24
2023-03-01T18:33:29.006Z,19.27
2023-03-01T18:34:28.892Z,19.28
2023-03-01T18:35:28.803Z,19.23
2023-03-01T18:36:28.675Z,19.25
2023-03-01T18:37:28.574Z,19.24
2023-03-01T18:38:28.451Z,19.25
2023-03-01T18:39:28.487Z,19.27
2023-03-01T18:40:28.479Z,19.24
2023-03-01T18:41:29.127Z,19.27
2023-03-01T18:42:27.994Z,19.27
2023-03-01T18:43:27.888Z,19.25
2023-03-01T18:44:27.869Z,19.28
2023-03-01T19:27:22.922Z,19.30
2023-03-01T19:28:22.817Z,19.30
2023-03-01T19:29:22.698Z,19.32
2023-03-01T19:30:22.631Z,19.31
2023-03-01T19:31:22.579Z,19.32
2023-03-01T19:32:22.406Z,19.28
2023-03-01T19:33:22.229Z,19.32
2023-03-01T19:34:22.119Z,19.31
2023-03-01T19:35:22.031Z,19.31
2023-03-01T19:36:21.987Z,19.31
2023-03-01T19:37:21.791Z,19.30
2023-03-01T19:38:21.694Z,19.30
2023-03-01T19:39:21.518Z,19.30
2023-03-01T19:40:21.400Z,19.30
2023-03-01T19:41:21.287Z,19.31
2023-03-01T19:42:21.167Z,19.31
2023-03-01T19:43:21.046Z,19.30
2023-03-01T19:44:20.995Z,19.31
2023-03-01T19:45:31.847Z,19.31
2023-03-01T19:46:21.657Z,19.32
2023-03-01T19:47:20.452Z,19.31
2023-03-01T19:48:20.308Z,19.34
2023-03-01T19:49:20.107Z,19.32
2023-03-01T19:50:19.932Z,19.31
2023-03-01T19:51:19.761Z,19.32
2023-03-01T19:52:19.578Z,19.31
2023-03-01T19:53:19.393Z,19.34
2023-03-01T19:54:19.202Z,19.31
2023-03-01T19:55:19.039Z,19.35
2023-03-01T19:56:18.999Z,19.31
2023-03-01T19:57:18.816Z,19.31
2023-03-01T19:58:18.684Z,19.31
2023-03-01T19:59:18.550Z,19.34
2023-03-01T20:00:18.434Z,19.30
2023-03-01T20:01:18.369Z,19.28
2023-03-01T20:02:18.232Z,19.31
2023-03-01T20:03:18.144Z,19.31
2023-03-01T20:04:17.961Z,19.34
2023-03-01T20:05:17.844Z,19.30
2023-03-01T20:06:17.711Z,19.28
2023-03-01T21:01:11.328Z,19.32
2023-03-01T21:02:11.113Z,19.30
2023-03-01T21:03:10.988Z,19.34
2023-03-01T21:04:10.896Z,19.34
2023-03-01T21:05:11.023Z,19.35
2023-03-01T21:06:10.675Z,19.34
2023-03-01T21:07:10.524Z,19.34
2023-03-01T21:08:10.404Z,19.32
2023-03-01T21:09:10.279Z,19.34
2023-03-01T21:10:10.323Z,19.34
2023-03-01T21:11:10.053Z,19.35
2023-03-01T21:12:10.001Z,19.34
2023-03-01T21:13:09.832Z,19.30
2023-03-01T21:14:09.694Z,19.31
2023-03-01T21:15:11.219Z,19.32
2023-03-01T21:16:09.537Z,19.34
2023-03-01T21:17:09.325Z,19.35
2023-03-01T21:18:09.289Z,19.35
2023-03-01T21:19:09.097Z,19.38
2023-03-01T21:20:08.989Z,19.32
2023-03-01T21:21:08.870Z,19.34
2023-03-01T21:22:08.755Z,19.32
2023-03-01T21:23:08.634Z,19.31
2023-03-01T21:24:08.511Z,19.32
2023-03-01T21:25:08.458Z,19.31
2023-03-01T21:26:08.312Z,19.30
2023-03-01T21:27:08.194Z,19.34
2023-03-01T21:28:08.055Z,19.34
2023-03-01T21:29:07.948Z,19.32
2023-03-01T21:30:07.832Z,19.31
2023-03-01T21:31:07.716Z,19.32
2023-03-01T22:24:01.717Z,19.34
2023-03-01T22:25:01.600Z,19.30
2023-03-01T22:26:01.490Z,19.32
2023-03-01T22:27:01.375Z,19.31
2023-03-01T22:28:01.268Z,19.32
2023-03-01T22:29:01.157Z,19.35
2023-03-01T22:30:01.105Z,19.31
2023-03-01T22:31:00.909Z,19.32
2023-03-01T22:32:00.990Z,19.34
2023-03-01T22:33:00.682Z,19.32
2023-03-01T22:34:00.575Z,19.34
2023-03-01T22:35:00.475Z,19.31
2023-03-01T22:36:00.473Z,19.35
2023-03-01T22:37:00.255Z,19.34
2023-03-01T22:38:00.147Z,19.30
2023-03-01T22:39:00.122Z,19.32
2023-03-01T22:39:59.944Z,19.34
2023-03-01T22:40:59.816Z,19.32
2023-03-01T22:41:59.768Z,19.31
2023-03-01T22:42:59.601Z,19.32
2023-03-01T22:43:59.482Z,19.30
2023-03-01T22:44:59.372Z,19.30
2023-03-01T22:45:59.332Z,19.32
2023-03-01T22:46:59.163Z,19.32
2023-03-01T22:47:59.035Z,19.27
2023-03-01T22:48:58.910Z,19.28
2023-03-01T22:49:58.795Z,19.28
2023-03-01T22:50:58.685Z,19.31
2023-03-01T22:52:00.365Z,19.30
2023-03-01T22:52:58.445Z,19.28
2023-03-01T22:53:58.333Z,19.28
2023-03-01T22:54:58.242Z,19.31
2023-03-01T22:55:58.102Z,19.28
2023-03-01T22:56:58.013Z,19.32
2023-03-01T22:57:57.856Z,19.30
2023-03-01T22:58:57.743Z,19.30
2023-03-01T22:59:58.053Z,19.31
2023-03-01T23:11:56.277Z,19.30
2023-03-01T23:13:56.046Z,19.25
2023-03-01T23:14:55.931Z,19.27
2023-03-01T23:15:55.823Z,19.25
2023-03-01T23:16:55.772Z,19.30
2023-03-01T23:17:55.610Z,19.27
2023-03-01T23:18:55.482Z,19.28
2023-03-01T23:19:55.384Z,19.28
2023-03-01T23:20:55.248Z,19.28
2023-03-01T23:21:55.157Z,19.28
2023-03-01T23:22:55.002Z,19.28
2023-03-01T23:23:55.066Z,19.28
2023-03-01T23:24:54.772Z,19.28
2023-03-01T23:25:54.661Z,19.27
2023-03-01T23:26:54.544Z,19.28
2023-03-01T23:27:54.393Z,19.28
2023-03-01T23:28:54.282Z,19.28
2023-03-01T23:29:54.175Z,19.28
2023-03-01T23:30:54.115Z,19.27
2023-03-01T23:31:53.956Z,19.25
2023-03-01T23:32:54.548Z,19.28
2023-03-01T23:33:53.712Z,19.30
2023-03-01T23:34:53.583Z,19.25
2023-03-01T23:35:53.491Z,19.27
2023-03-01T23:36:53.361Z,19.25
2023-03-01T23:37:53.232Z,19.27
2023-03-01T23:38:53.168Z,19.27
2023-03-01T23:39:53.001Z,19.27
2023-03-01T23:40:52.900Z,19.27
2023-03-01T23:41:52.792Z,19.28
2023-03-01T23:42:52.669Z,19.25
2023-03-01T23:43:52.544Z,19.23
2023-03-01T23:44:52.437Z,19.24
2023-03-01T23:45:52.339Z,19.25
2023-03-01T23:46:52.229Z,19.27
2023-03-01T23:47:52.172Z,19.27
2023-03-01T23:48:51.988Z,19.25
2023-03-01T23:49:51.875Z,19.25
2023-03-01T23:50:51.766Z,19.25
2023-03-01T23:51:51.652Z,19.28
2023-03-01T23:52:51.544Z,19.27
2023-03-01T23:53:51.440Z,19.25
2023-03-01T23:54:51.342Z,19.27
2023-03-01T23:55:51.243Z,19.24
2023-03-01T23:56:51.205Z,19.24
2023-03-01T23:57:51.023Z,19.24
2023-03-01T23:58:50.920Z,19.25
2023-03-01T23:59:50.838Z,19.25
